sensor_id;sensor_type;location;lat;lon;timestamp;pressure;altitude;pressure_sealevel;temperature;humidity
11017;BME280;54687;50.800;6.772;2023-04-07T00:01:07;61038.41;;;-144.06;63.33
11017;BME280;54687;50.800;6.772;2023-04-07T00:03:33;61023.75;;;-144.06;63.64
11017;BME280;54687;50.800;6.772;2023-04-07T00:06:02;61038.41;;;-144.06;64.02
11017;BME280;54687;50.800;6.772;2023-04-07T00:08:29;61011.16;;;-144.06;64.16
11017;BME280;54687;50.800;6.772;2023-04-07T00:10:57;61034.22;;;-144.06;63.99
11017;BME280;54687;50.800;6.772;2023-04-07T00:13:23;61061.47;;;-144.06;63.90
11017;BME280;54687;50.800;6.772;2023-04-07T00:15:50;61004.88;;;-144.06;64.23
11017;BME280;54687;50.800;6.772;2023-04-07T00:18:17;61051.00;;;-144.06;64.31
11017;BME280;54687;50.800;6.772;2023-04-07T00:20:44;61013.25;;;-144.06;64.13
11017;BME280;54687;50.800;6.772;2023-04-07T00:23:10;61023.75;;;-144.06;64.33
11017;BME280;54687;50.800;6.772;2023-04-07T00:25:37;61025.84;;;-144.06;64.62
11017;BME280;54687;50.800;6.772;2023-04-07T00:28:05;61046.78;;;-144.06;64.47
11017;BME280;54687;50.800;6.772;2023-04-07T00:30:31;61046.78;;;-144.06;64.57
11017;BME280;54687;50.800;6.772;2023-04-07T00:32:58;61076.13;;;-144.06;64.94
11017;BME280;54687;50.800;6.772;2023-04-07T00:35:24;61027.94;;;-144.06;64.84
11017;BME280;54687;50.800;6.772;2023-04-07T00:37:51;61057.28;;;-144.06;64.75
11017;BME280;54687;50.800;6.772;2023-04-07T00:40:17;61055.19;;;-144.06;64.91
11017;BME280;54687;50.800;6.772;2023-04-07T00:42:44;61038.41;;;-144.06;65.18
11017;BME280;54687;50.800;6.772;2023-04-07T00:45:12;61053.09;;;-144.06;65.41
11017;BME280;54687;50.800;6.772;2023-04-07T00:47:39;61030.03;;;-144.06;65.06
11017;BME280;54687;50.800;6.772;2023-04-07T00:50:06;61055.19;;;-144.06;65.49
11017;BME280;54687;50.800;6.772;2023-04-07T00:52:33;61011.16;;;-144.06;65.59
11017;BME280;54687;50.800;6.772;2023-04-07T00:55:00;61032.13;;;-144.06;65.62
11017;BME280;54687;50.800;6.772;2023-04-07T00:57:27;61025.84;;;-144.06;66.14
11017;BME280;54687;50.800;6.772;2023-04-07T00:59:54;61015.34;;;-144.06;66.33
11017;BME280;54687;50.800;6.772;2023-04-07T01:02:29;61042.59;;;-144.06;66.52
11017;BME280;54687;50.800;6.772;2023-04-07T01:05:04;61011.16;;;-144.06;66.66
11017;BME280;54687;50.800;6.772;2023-04-07T01:07:38;61021.63;;;-144.06;67.08
11017;BME280;54687;50.800;6.772;2023-04-07T01:10:10;61011.16;;;-144.06;67.23
11017;BME280;54687;50.800;6.772;2023-04-07T01:12:41;61025.84;;;-144.06;67.66
11017;BME280;54687;50.800;6.772;2023-04-07T01:15:11;61051.00;;;-144.06;67.61
11017;BME280;54687;50.800;6.772;2023-04-07T01:17:42;61015.34;;;-144.06;67.39
11017;BME280;54687;50.800;6.772;2023-04-07T01:20:13;61019.53;;;-144.06;67.57
11017;BME280;54687;50.800;6.772;2023-04-07T01:22:42;61063.56;;;-144.06;67.75
11017;BME280;54687;50.800;6.772;2023-04-07T01:25:27;61048.88;;;-144.06;67.67
11017;BME280;54687;50.800;6.772;2023-04-07T01:28:13;61021.63;;;-144.06;67.67
11017;BME280;54687;50.800;6.772;2023-04-07T01:30:43;61017.44;;;-144.06;67.84
11017;BME280;54687;50.800;6.772;2023-04-07T01:33:12;61006.97;;;-144.06;67.60
11017;BME280;54687;50.800;6.772;2023-04-07T01:35:40;61055.19;;;-144.06;68.03
11017;BME280;54687;50.800;6.772;2023-04-07T01:38:09;61034.22;;;-144.06;67.96
11017;BME280;54687;50.800;6.772;2023-04-07T01:40:37;61002.78;;;-144.06;68.21
11017;BME280;54687;50.800;6.772;2023-04-07T01:43:05;61030.03;;;-144.06;68.20
11017;BME280;54687;50.800;6.772;2023-04-07T01:45:33;61048.88;;;-144.06;68.26
11017;BME280;54687;50.800;6.772;2023-04-07T01:48:03;61025.84;;;-144.06;68.39
11017;BME280;54687;50.800;6.772;2023-04-07T01:50:30;61071.94;;;-144.06;68.60
11017;BME280;54687;50.800;6.772;2023-04-07T01:52:58;61063.56;;;-144.06;68.50
11017;BME280;54687;50.800;6.772;2023-04-07T01:55:25;61051.00;;;-144.06;68.23
11017;BME280;54687;50.800;6.772;2023-04-07T01:57:52;61057.28;;;-144.06;68.19
11017;BME280;54687;50.800;6.772;2023-04-07T02:00:19;60996.50;;;-144.06;67.87
11017;BME280;54687;50.800;6.772;2023-04-07T02:02:48;61032.13;;;-144.06;68.34
11017;BME280;54687;50.800;6.772;2023-04-07T02:05:20;61051.00;;;-144.06;68.59
11017;BME280;54687;50.800;6.772;2023-04-07T02:07:50;61036.31;;;-144.06;68.54
11017;BME280;54687;50.800;6.772;2023-04-07T02:10:21;61059.38;;;-144.06;68.28
11017;BME280;54687;50.800;6.772;2023-04-07T02:12:49;61080.34;;;-144.06;68.13
11017;BME280;54687;50.800;6.772;2023-04-07T02:15:17;61051.00;;;-144.06;68.01
11017;BME280;54687;50.800;6.772;2023-04-07T02:17:47;61055.19;;;-144.06;67.87
11017;BME280;54687;50.800;6.772;2023-04-07T02:20:16;61034.22;;;-144.06;68.09
11017;BME280;54687;50.800;6.772;2023-04-07T02:22:45;61048.88;;;-144.06;68.28
11017;BME280;54687;50.800;6.772;2023-04-07T02:25:22;61042.59;;;-144.06;68.18
11017;BME280;54687;50.800;6.772;2023-04-07T02:27:49;61055.19;;;-144.06;68.03
11017;BME280;54687;50.800;6.772;2023-04-07T02:30:16;61055.19;;;-144.06;68.03
11017;BME280;54687;50.800;6.772;2023-04-07T02:32:43;61019.53;;;-144.06;68.22
11017;BME280;54687;50.800;6.772;2023-04-07T02:35:10;61051.00;;;-144.06;67.91
11017;BME280;54687;50.800;6.772;2023-04-07T02:37:36;61017.44;;;-144.06;68.23
11017;BME280;54687;50.800;6.772;2023-04-07T02:40:06;61030.03;;;-144.06;68.09
11017;BME280;54687;50.800;6.772;2023-04-07T02:42:33;61017.44;;;-144.06;67.97
11017;BME280;54687;50.800;6.772;2023-04-07T02:45:00;61021.63;;;-144.06;67.91
11017;BME280;54687;50.800;6.772;2023-04-07T02:47:27;61059.38;;;-144.06;68.09
11017;BME280;54687;50.800;6.772;2023-04-07T02:49:54;61088.72;;;-144.06;67.64
11017;BME280;54687;50.800;6.772;2023-04-07T02:52:20;61025.84;;;-144.06;67.60
11017;BME280;54687;50.800;6.772;2023-04-07T02:54:47;61009.06;;;-144.06;67.78
11017;BME280;54687;50.800;6.772;2023-04-07T02:57:15;61017.44;;;-144.06;67.60
11017;BME280;54687;50.800;6.772;2023-04-07T02:59:41;61017.44;;;-144.06;67.58
11017;BME280;54687;50.800;6.772;2023-04-07T03:02:08;61051.00;;;-144.06;67.98
11017;BME280;54687;50.800;6.772;2023-04-07T03:04:35;61040.50;;;-144.06;67.95
11017;BME280;54687;50.800;6.772;2023-04-07T03:07:01;61040.50;;;-144.06;67.88
11017;BME280;54687;50.800;6.772;2023-04-07T03:09:28;61019.53;;;-144.06;67.93
11017;BME280;54687;50.800;6.772;2023-04-07T03:11:54;61034.22;;;-144.06;67.83
11017;BME280;54687;50.800;6.772;2023-04-07T03:14:22;61021.63;;;-144.06;67.85
11017;BME280;54687;50.800;6.772;2023-04-07T03:16:49;61053.09;;;-144.06;67.62
11017;BME280;54687;50.800;6.772;2023-04-07T03:19:15;61025.84;;;-144.06;67.64
11017;BME280;54687;50.800;6.772;2023-04-07T03:21:42;61034.22;;;-144.06;67.54
11017;BME280;54687;50.800;6.772;2023-04-07T03:24:08;61017.44;;;-144.06;67.53
11017;BME280;54687;50.800;6.772;2023-04-07T03:26:35;61019.53;;;-144.06;67.57
11017;BME280;54687;50.800;6.772;2023-04-07T03:29:02;61051.00;;;-144.06;67.52
11017;BME280;54687;50.800;6.772;2023-04-07T03:31:30;61055.19;;;-144.06;67.19
11017;BME280;54687;50.800;6.772;2023-04-07T03:33:57;61051.00;;;-144.06;67.03
11017;BME280;54687;50.800;6.772;2023-04-07T03:36:23;61051.00;;;-144.06;66.73
11017;BME280;54687;50.800;6.772;2023-04-07T03:38:52;61017.44;;;-144.06;66.98
11017;BME280;54687;50.800;6.772;2023-04-07T03:41:18;61015.34;;;-144.06;66.96
11017;BME280;54687;50.800;6.772;2023-04-07T03:43:45;61025.84;;;-144.06;66.72
11017;BME280;54687;50.800;6.772;2023-04-07T03:46:12;61088.72;;;-144.06;66.83
11017;BME280;54687;50.800;6.772;2023-04-07T03:48:40;61086.63;;;-144.06;66.59
11017;BME280;54687;50.800;6.772;2023-04-07T03:51:06;61055.19;;;-144.06;66.91
11017;BME280;54687;50.800;6.772;2023-04-07T03:53:33;61055.19;;;-144.06;66.85
11017;BME280;54687;50.800;6.772;2023-04-07T03:56:00;61019.53;;;-144.06;66.83
11017;BME280;54687;50.800;6.772;2023-04-07T03:58:26;61069.84;;;-144.06;66.88
11017;BME280;54687;50.800;6.772;2023-04-07T04:00:53;61034.22;;;-144.06;66.85
11017;BME280;54687;50.800;6.772;2023-04-07T04:03:19;61095.00;;;-144.06;66.93
11017;BME280;54687;50.800;6.772;2023-04-07T04:05:47;61038.41;;;-144.06;66.93
11017;BME280;54687;50.800;6.772;2023-04-07T04:08:14;61034.22;;;-144.06;66.80
11017;BME280;54687;50.800;6.772;2023-04-07T04:10:41;61063.56;;;-144.06;66.89
11017;BME280;54687;50.800;6.772;2023-04-07T04:13:07;61046.78;;;-144.06;66.71
11017;BME280;54687;50.800;6.772;2023-04-07T04:15:34;61042.59;;;-144.06;66.76
11017;BME280;54687;50.800;6.772;2023-04-07T04:18:00;61046.78;;;-144.06;66.40
11017;BME280;54687;50.800;6.772;2023-04-07T04:20:27;61065.66;;;-144.06;66.03
11017;BME280;54687;50.800;6.772;2023-04-07T04:22:55;61013.25;;;-144.06;65.60
11017;BME280;54687;50.800;6.772;2023-04-07T04:25:21;61059.38;;;-144.06;65.41
11017;BME280;54687;50.800;6.772;2023-04-07T04:27:48;61038.41;;;-144.06;65.33
11017;BME280;54687;50.800;6.772;2023-04-07T04:30:15;61040.50;;;-144.06;65.48
11017;BME280;54687;50.800;6.772;2023-04-07T04:32:42;61067.75;;;-144.06;65.23
11017;BME280;54687;50.800;6.772;2023-04-07T04:35:09;61046.78;;;-144.06;65.44
11017;BME280;54687;50.800;6.772;2023-04-07T04:37:35;61042.59;;;-144.06;65.33
11017;BME280;54687;50.800;6.772;2023-04-07T04:40:04;61059.38;;;-144.06;65.26
11017;BME280;54687;50.800;6.772;2023-04-07T04:42:32;61055.19;;;-144.06;65.38
11017;BME280;54687;50.800;6.772;2023-04-07T04:44:59;61048.88;;;-144.06;65.25
11017;BME280;54687;50.800;6.772;2023-04-07T04:47:25;61034.22;;;-144.06;65.51
11017;BME280;54687;50.800;6.772;2023-04-07T04:49:52;61059.38;;;-144.06;65.18
11017;BME280;54687;50.800;6.772;2023-04-07T04:52:18;61034.22;;;-144.06;65.11
11017;BME280;54687;50.800;6.772;2023-04-07T04:54:45;61080.34;;;-144.06;65.09
11017;BME280;54687;50.800;6.772;2023-04-07T04:57:13;61038.41;;;-144.06;64.95
11017;BME280;54687;50.800;6.772;2023-04-07T04:59:40;61055.19;;;-144.06;65.06
11017;BME280;54687;50.800;6.772;2023-04-07T05:02:07;61034.22;;;-144.06;65.29
11017;BME280;54687;50.800;6.772;2023-04-07T05:04:33;61048.88;;;-144.06;64.82
11017;BME280;54687;50.800;6.772;2023-04-07T05:07:00;61015.34;;;-144.06;65.06
11017;BME280;54687;50.800;6.772;2023-04-07T05:09:27;61051.00;;;-144.06;65.12
11017;BME280;54687;50.800;6.772;2023-04-07T05:11:53;61067.75;;;-144.06;65.12
11017;BME280;54687;50.800;6.772;2023-04-07T05:14:21;61034.22;;;-144.06;65.18
11017;BME280;54687;50.800;6.772;2023-04-07T05:16:48;61051.00;;;-144.06;65.24
11017;BME280;54687;50.800;6.772;2023-04-07T05:19:14;61082.44;;;-144.06;65.42
11017;BME280;54687;50.800;6.772;2023-04-07T05:21:41;61059.38;;;-144.06;65.26
11017;BME280;54687;50.800;6.772;2023-04-07T05:24:08;61051.00;;;-144.06;64.94
11017;BME280;54687;50.800;6.772;2023-04-07T05:26:34;61059.38;;;-144.06;65.20
11017;BME280;54687;50.800;6.772;2023-04-07T05:29:01;61036.31;;;-144.06;65.02
11017;BME280;54687;50.800;6.772;2023-04-07T05:31:28;61105.50;;;-144.06;64.62
11017;BME280;54687;50.800;6.772;2023-04-07T05:33:55;61048.88;;;-144.06;64.48
11017;BME280;54687;50.800;6.772;2023-04-07T05:36:22;61082.44;;;-144.06;64.65
11017;BME280;54687;50.800;6.772;2023-04-07T05:38:48;61059.38;;;-144.06;64.39
11017;BME280;54687;50.800;6.772;2023-04-07T05:41:15;61055.19;;;-144.06;64.50
11017;BME280;54687;50.800;6.772;2023-04-07T05:43:42;61063.56;;;-144.06;64.51
11017;BME280;54687;50.800;6.772;2023-04-07T05:46:08;61055.19;;;-144.06;64.31
11017;BME280;54687;50.800;6.772;2023-04-07T05:48:36;60998.59;;;-144.06;64.40
11017;BME280;54687;50.800;6.772;2023-04-07T05:51:03;61002.78;;;-144.06;64.41
11017;BME280;54687;50.800;6.772;2023-04-07T05:53:30;61025.84;;;-144.06;64.18
11017;BME280;54687;50.800;6.772;2023-04-07T05:55:56;61065.66;;;-144.06;64.31
11017;BME280;54687;50.800;6.772;2023-04-07T05:58:23;61063.56;;;-144.06;63.99
11017;BME280;54687;50.800;6.772;2023-04-07T06:00:49;61067.75;;;-144.06;63.92
11017;BME280;54687;50.800;6.772;2023-04-07T06:03:16;61071.94;;;-144.06;63.89
11017;BME280;54687;50.800;6.772;2023-04-07T06:05:46;61059.38;;;-144.06;63.81
11017;BME280;54687;50.800;6.772;2023-04-07T06:08:12;61095.00;;;-144.06;63.91
11017;BME280;54687;50.800;6.772;2023-04-07T06:10:39;61053.09;;;-144.06;63.96
11017;BME280;54687;50.800;6.772;2023-04-07T06:13:06;61067.75;;;-144.06;63.64
11017;BME280;54687;50.800;6.772;2023-04-07T06:15:32;61000.69;;;-144.06;63.61
11017;BME280;54687;50.800;6.772;2023-04-07T06:17:59;61046.78;;;-144.06;63.44
11017;BME280;54687;50.800;6.772;2023-04-07T06:20:26;61051.00;;;-144.06;63.64
11017;BME280;54687;50.800;6.772;2023-04-07T06:22:54;61063.56;;;-144.06;63.30
11017;BME280;54687;50.800;6.772;2023-04-07T06:25:21;61067.75;;;-144.06;63.45
11017;BME280;54687;50.800;6.772;2023-04-07T06:27:47;61015.34;;;-144.06;63.53
11017;BME280;54687;50.800;6.772;2023-04-07T06:30:14;61063.56;;;-144.06;63.52
11017;BME280;54687;50.800;6.772;2023-04-07T06:32:41;61000.69;;;-144.06;63.69
11017;BME280;54687;50.800;6.772;2023-04-07T06:35:08;61025.84;;;-144.06;63.43
11017;BME280;54687;50.800;6.772;2023-04-07T06:37:34;61067.75;;;-144.06;63.50
11017;BME280;54687;50.800;6.772;2023-04-07T06:40:03;61017.44;;;-144.06;63.90
11017;BME280;54687;50.800;6.772;2023-04-07T06:42:30;61065.66;;;-144.06;64.13
11017;BME280;54687;50.800;6.772;2023-04-07T06:44:56;61063.56;;;-144.06;63.92
11017;BME280;54687;50.800;6.772;2023-04-07T06:47:23;61046.78;;;-144.06;64.13
11017;BME280;54687;50.800;6.772;2023-04-07T06:49:49;61059.38;;;-144.06;64.76
11017;BME280;54687;50.800;6.772;2023-04-07T06:52:16;61019.53;;;-144.06;64.79
11017;BME280;54687;50.800;6.772;2023-04-07T06:54:42;61076.13;;;-144.06;64.60
11017;BME280;54687;50.800;6.772;2023-04-07T06:57:10;61059.38;;;-144.06;64.18
11017;BME280;54687;50.800;6.772;2023-04-07T06:59:37;61063.56;;;-144.06;63.61
11017;BME280;54687;50.800;6.772;2023-04-07T07:02:03;61034.22;;;-144.06;63.37
11017;BME280;54687;50.800;6.772;2023-04-07T07:04:33;61004.88;;;-144.06;63.59
11017;BME280;54687;50.800;6.772;2023-04-07T07:06:59;61038.41;;;-144.06;63.18
11017;BME280;54687;50.800;6.772;2023-04-07T07:09:26;61048.88;;;-144.06;63.06
11017;BME280;54687;50.800;6.772;2023-04-07T07:11:53;61059.38;;;-144.06;63.58
11017;BME280;54687;50.800;6.772;2023-04-07T07:14:21;61051.00;;;-144.06;63.49
11017;BME280;54687;50.800;6.772;2023-04-07T07:16:48;61032.13;;;-144.06;63.71
11017;BME280;54687;50.800;6.772;2023-04-07T07:19:14;61051.00;;;-144.06;63.60
11017;BME280;54687;50.800;6.772;2023-04-07T07:21:41;61097.09;;;-144.06;63.02
11017;BME280;54687;50.800;6.772;2023-04-07T07:24:07;61063.56;;;-144.06;63.18
11017;BME280;54687;50.800;6.772;2023-04-07T07:26:34;61040.50;;;-144.06;63.27
11017;BME280;54687;50.800;6.772;2023-04-07T07:29:00;61055.19;;;-144.06;63.05
11017;BME280;54687;50.800;6.772;2023-04-07T07:31:28;61057.28;;;-144.06;63.13
11017;BME280;54687;50.800;6.772;2023-04-07T07:33:55;61021.63;;;-144.06;62.76
11017;BME280;54687;50.800;6.772;2023-04-07T07:36:22;61065.66;;;-144.06;62.60
11017;BME280;54687;50.800;6.772;2023-04-07T07:38:49;61040.50;;;-144.06;62.89
11017;BME280;54687;50.800;6.772;2023-04-07T07:41:16;60988.09;;;-144.06;62.40
11017;BME280;54687;50.800;6.772;2023-04-07T07:43:42;61051.00;;;-144.06;62.66
11017;BME280;54687;50.800;6.772;2023-04-07T07:46:09;61042.59;;;-144.06;62.34
11017;BME280;54687;50.800;6.772;2023-04-07T07:48:37;61040.50;;;-144.06;62.76
11017;BME280;54687;50.800;6.772;2023-04-07T07:51:04;61046.78;;;-144.06;62.81
11017;BME280;54687;50.800;6.772;2023-04-07T07:53:30;61034.22;;;-144.06;63.68
11017;BME280;54687;50.800;6.772;2023-04-07T07:55:57;61046.78;;;-144.06;63.07
11017;BME280;54687;50.800;6.772;2023-04-07T07:58:24;61011.16;;;-144.06;62.27
11017;BME280;54687;50.800;6.772;2023-04-07T08:00:51;61011.16;;;-144.06;61.97
11017;BME280;54687;50.800;6.772;2023-04-07T08:03:17;61053.09;;;-144.06;62.87
11017;BME280;54687;50.800;6.772;2023-04-07T08:05:48;61002.78;;;-144.06;61.89
11017;BME280;54687;50.800;6.772;2023-04-07T08:08:15;61076.13;;;-144.06;62.17
11017;BME280;54687;50.800;6.772;2023-04-07T08:10:42;61055.19;;;-144.06;62.61
11017;BME280;54687;50.800;6.772;2023-04-07T08:13:09;61023.75;;;-144.06;62.41
11017;BME280;54687;50.800;6.772;2023-04-07T08:15:36;61048.88;;;-144.06;63.29
11017;BME280;54687;50.800;6.772;2023-04-07T08:18:02;61053.09;;;-144.06;62.12
11017;BME280;54687;50.800;6.772;2023-04-07T08:20:31;61030.03;;;-144.06;62.34
11017;BME280;54687;50.800;6.772;2023-04-07T08:22:59;61034.22;;;-144.06;62.27
11017;BME280;54687;50.800;6.772;2023-04-07T08:25:27;61042.59;;;-144.06;62.80
11017;BME280;54687;50.800;6.772;2023-04-07T08:27:54;61063.56;;;-144.06;62.66
11017;BME280;54687;50.800;6.772;2023-04-07T08:30:20;61038.41;;;-144.06;62.33
11017;BME280;54687;50.800;6.772;2023-04-07T08:32:48;61055.19;;;-144.06;62.49
11017;BME280;54687;50.800;6.772;2023-04-07T08:35:14;61051.00;;;-144.06;61.44
11017;BME280;54687;50.800;6.772;2023-04-07T08:37:41;60971.34;;;-144.06;61.07
11017;BME280;54687;50.800;6.772;2023-04-07T08:40:10;61063.56;;;-144.06;60.04
11017;BME280;54687;50.800;6.772;2023-04-07T08:42:40;61063.56;;;-144.06;59.22
11017;BME280;54687;50.800;6.772;2023-04-07T08:45:07;61009.06;;;-144.06;58.74
11017;BME280;54687;50.800;6.772;2023-04-07T08:47:35;61030.03;;;-144.06;58.31
11017;BME280;54687;50.800;6.772;2023-04-07T08:50:05;61023.75;;;-144.06;57.98
11017;BME280;54687;50.800;6.772;2023-04-07T08:52:33;61034.22;;;-144.06;57.97
11017;BME280;54687;50.800;6.772;2023-04-07T08:55:02;61084.53;;;-144.06;57.03
11017;BME280;54687;50.800;6.772;2023-04-07T08:57:32;61015.34;;;-144.06;57.11
11017;BME280;54687;50.800;6.772;2023-04-07T09:00:00;61017.44;;;-144.06;56.85
11017;BME280;54687;50.800;6.772;2023-04-07T09:02:31;60988.09;;;-144.06;56.38
11017;BME280;54687;50.800;6.772;2023-04-07T09:04:58;61030.03;;;-144.06;56.19
11017;BME280;54687;50.800;6.772;2023-04-07T09:07:24;61000.69;;;-144.06;55.87
11017;BME280;54687;50.800;6.772;2023-04-07T09:09:51;61013.25;;;-144.06;55.89
11017;BME280;54687;50.800;6.772;2023-04-07T09:12:18;60971.34;;;-144.06;55.38
11017;BME280;54687;50.800;6.772;2023-04-07T09:14:46;60992.28;;;-144.06;55.58
11017;BME280;54687;50.800;6.772;2023-04-07T09:17:12;61051.00;;;-144.06;55.18
11017;BME280;54687;50.800;6.772;2023-04-07T09:19:39;60967.13;;;-144.06;55.06
11017;BME280;54687;50.800;6.772;2023-04-07T09:22:06;61009.06;;;-144.06;55.00
11017;BME280;54687;50.800;6.772;2023-04-07T09:24:37;60996.50;;;-144.06;54.73
11017;BME280;54687;50.800;6.772;2023-04-07T09:27:14;60986.00;;;-144.06;54.76
11017;BME280;54687;50.800;6.772;2023-04-07T09:29:42;60992.28;;;-144.06;55.25
11017;BME280;54687;50.800;6.772;2023-04-07T09:32:11;61004.88;;;-144.06;55.39
11017;BME280;54687;50.800;6.772;2023-04-07T09:34:39;60971.34;;;-144.06;54.76
11017;BME280;54687;50.800;6.772;2023-04-07T09:37:07;61000.69;;;-144.06;55.21
11017;BME280;54687;50.800;6.772;2023-04-07T09:39:48;60944.09;;;-144.06;55.23
11017;BME280;54687;50.800;6.772;2023-04-07T09:42:16;61025.84;;;-144.06;55.38
11017;BME280;54687;50.800;6.772;2023-04-07T09:44:43;60962.94;;;-144.06;55.21
11017;BME280;54687;50.800;6.772;2023-04-07T09:47:11;60979.72;;;-144.06;55.30
11017;BME280;54687;50.800;6.772;2023-04-07T09:49:48;61015.34;;;-144.06;55.11
11017;BME280;54687;50.800;6.772;2023-04-07T09:52:14;60950.38;;;-144.06;54.90
11017;BME280;54687;50.800;6.772;2023-04-07T09:54:42;60971.34;;;-144.06;54.94
11017;BME280;54687;50.800;6.772;2023-04-07T09:57:10;60937.78;;;-144.06;54.31
11017;BME280;54687;50.800;6.772;2023-04-07T09:59:39;61009.06;;;-144.06;53.77
11017;BME280;54687;50.800;6.772;2023-04-07T10:02:07;60971.34;;;-144.06;53.40
11017;BME280;54687;50.800;6.772;2023-04-07T10:04:35;60948.28;;;-144.06;53.08
11017;BME280;54687;50.800;6.772;2023-04-07T10:07:03;60954.56;;;-144.06;52.23
11017;BME280;54687;50.800;6.772;2023-04-07T10:09:30;60960.84;;;-144.06;50.63
11017;BME280;54687;50.800;6.772;2023-04-07T10:11:58;60960.84;;;-144.06;50.53
11017;BME280;54687;50.800;6.772;2023-04-07T10:14:25;60965.03;;;-144.06;49.85
11017;BME280;54687;50.800;6.772;2023-04-07T10:16:53;60944.09;;;-144.06;49.46
11017;BME280;54687;50.800;6.772;2023-04-07T10:19:20;60958.75;;;-144.06;49.13
11017;BME280;54687;50.800;6.772;2023-04-07T10:21:50;61015.34;;;-144.06;49.08
11017;BME280;54687;50.800;6.772;2023-04-07T10:24:25;60933.59;;;-144.06;48.86
11017;BME280;54687;50.800;6.772;2023-04-07T10:26:59;60912.63;;;-144.06;48.51
11017;BME280;54687;50.800;6.772;2023-04-07T10:29:32;60929.41;;;-144.06;48.12
11017;BME280;54687;50.800;6.772;2023-04-07T10:32:00;60904.25;;;-144.06;47.54
11017;BME280;54687;50.800;6.772;2023-04-07T10:34:56;60921.03;;;-144.06;47.58
11017;BME280;54687;50.800;6.772;2023-04-07T10:37:25;60895.88;;;-144.06;47.00
11017;BME280;54687;50.800;6.772;2023-04-07T10:42:57;60866.53;;;-144.06;45.92
11017;BME280;54687;50.800;6.772;2023-04-07T10:45:53;60941.97;;;-144.06;45.30
11017;BME280;54687;50.800;6.772;2023-04-07T10:48:24;60916.84;;;-144.06;46.21
11017;BME280;54687;50.800;6.772;2023-04-07T10:51:14;60897.97;;;-144.06;45.53
11017;BME280;54687;50.800;6.772;2023-04-07T10:57:11;60929.41;;;-144.06;46.23
11017;BME280;54687;50.800;6.772;2023-04-07T10:59:40;60925.22;;;-144.06;46.84
11017;BME280;54687;50.800;6.772;2023-04-07T11:02:29;60912.63;;;-144.06;47.66
11017;BME280;54687;50.800;6.772;2023-04-07T11:04:55;60933.59;;;-144.06;48.19
11017;BME280;54687;50.800;6.772;2023-04-07T11:07:45;60927.31;;;-144.06;48.73
11017;BME280;54687;50.800;6.772;2023-04-07T11:10:13;60918.94;;;-144.06;49.19
11017;BME280;54687;50.800;6.772;2023-04-07T11:12:40;60912.63;;;-144.06;48.68
11017;BME280;54687;50.800;6.772;2023-04-07T11:15:18;60933.59;;;-144.06;48.53
11017;BME280;54687;50.800;6.772;2023-04-07T11:17:45;60952.47;;;-144.06;48.94
11017;BME280;54687;50.800;6.772;2023-04-07T11:20:11;60900.06;;;-144.06;48.25
11017;BME280;54687;50.800;6.772;2023-04-07T11:22:38;60921.03;;;-144.06;48.15
11017;BME280;54687;50.800;6.772;2023-04-07T11:25:21;60941.97;;;-144.06;48.62
11017;BME280;54687;50.800;6.772;2023-04-07T11:27:52;60914.72;;;-144.06;48.96
11017;BME280;54687;50.800;6.772;2023-04-07T11:30:18;60937.78;;;-144.06;48.62
11017;BME280;54687;50.800;6.772;2023-04-07T11:32:47;60929.41;;;-144.06;48.62
11017;BME280;54687;50.800;6.772;2023-04-07T11:35:15;60927.31;;;-144.06;48.20
11017;BME280;54687;50.800;6.772;2023-04-07T11:37:42;60952.47;;;-144.06;48.63
11017;BME280;54687;50.800;6.772;2023-04-07T11:40:09;60931.50;;;-144.06;49.47
11017;BME280;54687;50.800;6.772;2023-04-07T11:42:39;60918.94;;;-144.06;49.91
11017;BME280;54687;50.800;6.772;2023-04-07T11:45:15;60937.78;;;-144.06;50.60
11017;BME280;54687;50.800;6.772;2023-04-07T11:47:41;60981.81;;;-144.06;51.43
11017;BME280;54687;50.800;6.772;2023-04-07T11:50:09;60975.53;;;-144.06;52.08
11017;BME280;54687;50.800;6.772;2023-04-07T11:52:42;61059.38;;;-144.06;52.77
11017;BME280;54687;50.800;6.772;2023-04-07T11:55:18;60958.75;;;-144.06;53.29
11017;BME280;54687;50.800;6.772;2023-04-07T11:57:47;60975.53;;;-144.06;52.95
11017;BME280;54687;50.800;6.772;2023-04-07T12:00:15;60958.75;;;-144.06;53.16
11017;BME280;54687;50.800;6.772;2023-04-07T12:02:43;60971.34;;;-144.06;53.10
11017;BME280;54687;50.800;6.772;2023-04-07T12:05:09;60962.94;;;-144.06;53.75
11017;BME280;54687;50.800;6.772;2023-04-07T12:07:36;61006.97;;;-144.06;54.15
11017;BME280;54687;50.800;6.772;2023-04-07T12:10:19;61006.97;;;-144.06;54.64
11017;BME280;54687;50.800;6.772;2023-04-07T12:12:47;60988.09;;;-144.06;54.99
11017;BME280;54687;50.800;6.772;2023-04-07T12:15:15;60992.28;;;-144.06;55.40
11017;BME280;54687;50.800;6.772;2023-04-07T12:17:44;60986.00;;;-144.06;55.67
11017;BME280;54687;50.800;6.772;2023-04-07T12:20:12;61030.03;;;-144.06;55.53
11017;BME280;54687;50.800;6.772;2023-04-07T12:22:39;61013.25;;;-144.06;56.34
11017;BME280;54687;50.800;6.772;2023-04-07T12:25:07;60996.50;;;-144.06;56.68
11017;BME280;54687;50.800;6.772;2023-04-07T12:27:33;61009.06;;;-144.06;56.43
11017;BME280;54687;50.800;6.772;2023-04-07T12:30:02;61009.06;;;-144.06;56.38
11017;BME280;54687;50.800;6.772;2023-04-07T12:32:28;61013.25;;;-144.06;56.12
11017;BME280;54687;50.800;6.772;2023-04-07T12:34:57;60962.94;;;-144.06;55.99
11017;BME280;54687;50.800;6.772;2023-04-07T12:37:23;60990.19;;;-144.06;56.12
11017;BME280;54687;50.800;6.772;2023-04-07T12:39:50;60979.72;;;-144.06;55.97
11017;BME280;54687;50.800;6.772;2023-04-07T12:42:16;60983.91;;;-144.06;55.41
11017;BME280;54687;50.800;6.772;2023-04-07T12:44:43;60975.53;;;-144.06;53.96
11017;BME280;54687;50.800;6.772;2023-04-07T12:47:12;60996.50;;;-144.06;52.74
11017;BME280;54687;50.800;6.772;2023-04-07T12:49:39;61013.25;;;-144.06;53.00
11017;BME280;54687;50.800;6.772;2023-04-07T12:52:05;60983.91;;;-144.06;52.94